sensor_id;sensor_type;location;lat;lon;timestamp;P1;durP1;ratioP1;P2;durP2;ratioP2
27889;SDS011;15238;49.082;9.102;2023-06-26T00:01:01;9.10;;;5.05;;
27889;SDS011;15238;49.082;9.102;2023-06-26T00:03:02;7.10;;;5.10;;
27889;SDS011;15238;49.082;9.102;2023-06-26T00:05:03;5.38;;;4.38;;
27889;SDS011;15238;49.082;9.102;2023-06-26T00:07:04;5.82;;;5.07;;
27889;SDS011;15238;49.082;9.102;2023-06-26T00:09:05;7.38;;;5.70;;
27889;SDS011;15238;49.082;9.102;2023-06-26T00:11:06;6.05;;;5.22;;
27889;SDS011;15238;49.082;9.102;2023-06-26T00:13:07;7.03;;;4.85;;
27889;SDS011;15238;49.082;9.102;2023-06-26T00:15:08;7.93;;;5.43;;
27889;SDS011;15238;49.082;9.102;2023-06-26T00:17:08;7.80;;;5.78;;
27889;SDS011;15238;49.082;9.102;2023-06-26T00:19:09;7.45;;;5.30;;
27889;SDS011;15238;49.082;9.102;2023-06-26T00:21:09;5.70;;;4.90;;
27889;SDS011;15238;49.082;9.102;2023-06-26T00:23:11;6.65;;;4.85;;
27889;SDS011;15238;49.082;9.102;2023-06-26T00:25:13;10.43;;;5.93;;
27889;SDS011;15238;49.082;9.102;2023-06-26T00:27:13;6.85;;;5.25;;
27889;SDS011;15238;49.082;9.102;2023-06-26T00:29:14;7.15;;;5.45;;
27889;SDS011;15238;49.082;9.102;2023-06-26T00:31:14;9.23;;;5.22;;
27889;SDS011;15238;49.082;9.102;2023-06-26T00:33:15;10.30;;;5.43;;
27889;SDS011;15238;49.082;9.102;2023-06-26T00:35:15;7.53;;;5.43;;
27889;SDS011;15238;49.082;9.102;2023-06-26T00:37:16;7.28;;;5.90;;
27889;SDS011;15238;49.082;9.102;2023-06-26T00:39:17;8.90;;;6.00;;
27889;SDS011;15238;49.082;9.102;2023-06-26T00:41:17;7.47;;;6.05;;
27889;SDS011;15238;49.082;9.102;2023-06-26T00:43:18;8.13;;;5.80;;
27889;SDS011;15238;49.082;9.102;2023-06-26T00:45:19;7.93;;;6.05;;
27889;SDS011;15238;49.082;9.102;2023-06-26T00:47:19;8.90;;;6.75;;
27889;SDS011;15238;49.082;9.102;2023-06-26T00:49:20;9.95;;;5.95;;
27889;SDS011;15238;49.082;9.102;2023-06-26T00:51:20;7.35;;;6.05;;
27889;SDS011;15238;49.082;9.102;2023-06-26T00:53:21;8.93;;;6.63;;
27889;SDS011;15238;49.082;9.102;2023-06-26T00:55:22;9.05;;;6.35;;
27889;SDS011;15238;49.082;9.102;2023-06-26T00:57:23;6.32;;;5.45;;
27889;SDS011;15238;49.082;9.102;2023-06-26T00:59:24;10.30;;;6.30;;
27889;SDS011;15238;49.082;9.102;2023-06-26T01:01:24;7.03;;;5.65;;
27889;SDS011;15238;49.082;9.102;2023-06-26T01:03:25;7.22;;;5.75;;
27889;SDS011;15238;49.082;9.102;2023-06-26T01:05:26;10.02;;;5.68;;
27889;SDS011;15238;49.082;9.102;2023-06-26T01:07:28;7.85;;;5.85;;
27889;SDS011;15238;49.082;9.102;2023-06-26T01:09:29;9.20;;;5.55;;
27889;SDS011;15238;49.082;9.102;2023-06-26T01:11:31;7.32;;;5.50;;
27889;SDS011;15238;49.082;9.102;2023-06-26T01:13:31;14.60;;;6.32;;
27889;SDS011;15238;49.082;9.102;2023-06-26T01:15:33;8.60;;;5.93;;
27889;SDS011;15238;49.082;9.102;2023-06-26T01:17:33;9.25;;;6.18;;
27889;SDS011;15238;49.082;9.102;2023-06-26T01:19:35;11.75;;;5.40;;
27889;SDS011;15238;49.082;9.102;2023-06-26T01:21:36;6.53;;;5.10;;
27889;SDS011;15238;49.082;9.102;2023-06-26T01:23:57;8.98;;;5.88;;
27889;SDS011;15238;49.082;9.102;2023-06-26T01:28:07;6.80;;;5.50;;
27889;SDS011;15238;49.082;9.102;2023-06-26T01:30:09;7.13;;;5.68;;
27889;SDS011;15238;49.082;9.102;2023-06-26T01:32:11;8.80;;;5.20;;
27889;SDS011;15238;49.082;9.102;2023-06-26T01:34:11;6.65;;;5.30;;
27889;SDS011;15238;49.082;9.102;2023-06-26T01:36:12;6.38;;;5.30;;
27889;SDS011;15238;49.082;9.102;2023-06-26T01:38:14;6.93;;;5.35;;
27889;SDS011;15238;49.082;9.102;2023-06-26T01:40:16;6.28;;;5.45;;
27889;SDS011;15238;49.082;9.102;2023-06-26T01:42:17;6.63;;;5.47;;
27889;SDS011;15238;49.082;9.102;2023-06-26T01:44:28;9.57;;;5.28;;
27889;SDS011;15238;49.082;9.102;2023-06-26T01:46:33;7.25;;;5.80;;
27889;SDS011;15238;49.082;9.102;2023-06-26T01:48:47;7.72;;;6.53;;
27889;SDS011;15238;49.082;9.102;2023-06-26T01:51:01;13.88;;;6.43;;
27889;SDS011;15238;49.082;9.102;2023-06-26T01:53:09;11.57;;;6.03;;
27889;SDS011;15238;49.082;9.102;2023-06-26T01:55:17;9.32;;;5.68;;
27889;SDS011;15238;49.082;9.102;2023-06-26T01:57:20;7.10;;;5.95;;
27889;SDS011;15238;49.082;9.102;2023-06-26T01:59:22;9.93;;;5.93;;
27889;SDS011;15238;49.082;9.102;2023-06-26T02:01:25;7.53;;;5.85;;
27889;SDS011;15238;49.082;9.102;2023-06-26T02:03:26;8.57;;;6.07;;
27889;SDS011;15238;49.082;9.102;2023-06-26T02:05:26;6.53;;;5.32;;
27889;SDS011;15238;49.082;9.102;2023-06-26T02:07:27;6.25;;;5.50;;
27889;SDS011;15238;49.082;9.102;2023-06-26T02:09:28;8.55;;;6.20;;
27889;SDS011;15238;49.082;9.102;2023-06-26T02:11:28;6.70;;;5.40;;
27889;SDS011;15238;49.082;9.102;2023-06-26T02:13:29;7.47;;;5.30;;
27889;SDS011;15238;49.082;9.102;2023-06-26T02:15:29;8.23;;;5.18;;
27889;SDS011;15238;49.082;9.102;2023-06-26T02:17:30;10.73;;;5.72;;
27889;SDS011;15238;49.082;9.102;2023-06-26T02:19:30;9.38;;;6.10;;
27889;SDS011;15238;49.082;9.102;2023-06-26T02:21:31;6.80;;;5.70;;
27889;SDS011;15238;49.082;9.102;2023-06-26T02:23:31;8.85;;;5.50;;
27889;SDS011;15238;49.082;9.102;2023-06-26T02:25:32;10.80;;;6.07;;
27889;SDS011;15238;49.082;9.102;2023-06-26T02:27:32;7.78;;;5.75;;
27889;SDS011;15238;49.082;9.102;2023-06-26T02:29:33;7.68;;;5.85;;
27889;SDS011;15238;49.082;9.102;2023-06-26T02:31:33;10.25;;;7.18;;
27889;SDS011;15238;49.082;9.102;2023-06-26T02:33:34;8.18;;;5.57;;
27889;SDS011;15238;49.082;9.102;2023-06-26T02:35:35;7.28;;;5.60;;
27889;SDS011;15238;49.082;9.102;2023-06-26T02:37:35;8.93;;;5.55;;
27889;SDS011;15238;49.082;9.102;2023-06-26T02:39:36;7.53;;;5.40;;
27889;SDS011;15238;49.082;9.102;2023-06-26T02:41:37;8.30;;;5.57;;
27889;SDS011;15238;49.082;9.102;2023-06-26T02:43:37;7.72;;;6.00;;
27889;SDS011;15238;49.082;9.102;2023-06-26T02:45:38;7.13;;;5.93;;
27889;SDS011;15238;49.082;9.102;2023-06-26T02:47:38;7.82;;;5.93;;
27889;SDS011;15238;49.082;9.102;2023-06-26T02:49:39;8.25;;;5.70;;
27889;SDS011;15238;49.082;9.102;2023-06-26T02:51:40;8.07;;;5.90;;
27889;SDS011;15238;49.082;9.102;2023-06-26T02:53:41;8.13;;;5.40;;
27889;SDS011;15238;49.082;9.102;2023-06-26T02:55:41;10.88;;;6.20;;
27889;SDS011;15238;49.082;9.102;2023-06-26T02:57:42;12.43;;;5.72;;
27889;SDS011;15238;49.082;9.102;2023-06-26T02:59:42;6.35;;;5.18;;
27889;SDS011;15238;49.082;9.102;2023-06-26T03:01:43;7.47;;;5.50;;
27889;SDS011;15238;49.082;9.102;2023-06-26T03:03:43;11.98;;;5.55;;
27889;SDS011;15238;49.082;9.102;2023-06-26T03:05:44;9.10;;;4.97;;
27889;SDS011;15238;49.082;9.102;2023-06-26T03:07:44;10.43;;;5.15;;
27889;SDS011;15238;49.082;9.102;2023-06-26T03:09:45;10.13;;;5.97;;
27889;SDS011;15238;49.082;9.102;2023-06-26T03:11:45;8.18;;;5.70;;
27889;SDS011;15238;49.082;9.102;2023-06-26T03:13:46;8.55;;;6.00;;
27889;SDS011;15238;49.082;9.102;2023-06-26T03:15:47;10.02;;;6.40;;
27889;SDS011;15238;49.082;9.102;2023-06-26T03:17:47;13.30;;;7.15;;
27889;SDS011;15238;49.082;9.102;2023-06-26T03:19:48;10.68;;;6.65;;
27889;SDS011;15238;49.082;9.102;2023-06-26T03:21:48;8.18;;;6.32;;
27889;SDS011;15238;49.082;9.102;2023-06-26T03:23:49;7.13;;;5.93;;
27889;SDS011;15238;49.082;9.102;2023-06-26T03:25:50;9.88;;;6.10;;
27889;SDS011;15238;49.082;9.102;2023-06-26T03:27:50;8.88;;;6.70;;
27889;SDS011;15238;49.082;9.102;2023-06-26T03:29:51;10.02;;;6.30;;
27889;SDS011;15238;49.082;9.102;2023-06-26T03:31:52;8.32;;;6.38;;
27889;SDS011;15238;49.082;9.102;2023-06-26T03:33:53;9.95;;;6.25;;
27889;SDS011;15238;49.082;9.102;2023-06-26T03:35:53;10.43;;;6.40;;
27889;SDS011;15238;49.082;9.102;2023-06-26T03:37:54;8.68;;;6.25;;
27889;SDS011;15238;49.082;9.102;2023-06-26T03:39:54;9.95;;;6.10;;
27889;SDS011;15238;49.082;9.102;2023-06-26T03:41:55;11.25;;;6.03;;
27889;SDS011;15238;49.082;9.102;2023-06-26T03:44:00;10.10;;;5.90;;
27889;SDS011;15238;49.082;9.102;2023-06-26T03:46:01;7.63;;;6.43;;
27889;SDS011;15238;49.082;9.102;2023-06-26T03:48:02;7.25;;;5.97;;
27889;SDS011;15238;49.082;9.102;2023-06-26T03:50:03;8.90;;;5.95;;
27889;SDS011;15238;49.082;9.102;2023-06-26T03:52:04;10.27;;;6.18;;
27889;SDS011;15238;49.082;9.102;2023-06-26T03:54:04;8.07;;;6.30;;
27889;SDS011;15238;49.082;9.102;2023-06-26T03:56:05;7.03;;;6.05;;
27889;SDS011;15238;49.082;9.102;2023-06-26T03:58:05;6.40;;;5.60;;
27889;SDS011;15238;49.082;9.102;2023-06-26T04:00:06;7.00;;;5.82;;
27889;SDS011;15238;49.082;9.102;2023-06-26T04:02:12;11.63;;;7.03;;
27889;SDS011;15238;49.082;9.102;2023-06-26T04:04:12;11.90;;;6.10;;
27889;SDS011;15238;49.082;9.102;2023-06-26T04:06:13;9.15;;;5.65;;
27889;SDS011;15238;49.082;9.102;2023-06-26T04:08:13;10.23;;;5.90;;
27889;SDS011;15238;49.082;9.102;2023-06-26T04:10:14;8.77;;;6.10;;
27889;SDS011;15238;49.082;9.102;2023-06-26T04:12:14;20.77;;;6.85;;
27889;SDS011;15238;49.082;9.102;2023-06-26T04:14:15;7.80;;;5.40;;
27889;SDS011;15238;49.082;9.102;2023-06-26T04:16:15;8.65;;;5.53;;
27889;SDS011;15238;49.082;9.102;2023-06-26T04:18:16;9.98;;;7.00;;
27889;SDS011;15238;49.082;9.102;2023-06-26T04:20:16;11.00;;;6.50;;
27889;SDS011;15238;49.082;9.102;2023-06-26T04:22:17;10.20;;;7.28;;
27889;SDS011;15238;49.082;9.102;2023-06-26T04:24:18;14.20;;;6.25;;
27889;SDS011;15238;49.082;9.102;2023-06-26T04:26:18;10.27;;;6.63;;
27889;SDS011;15238;49.082;9.102;2023-06-26T04:28:19;10.02;;;6.82;;
27889;SDS011;15238;49.082;9.102;2023-06-26T04:30:19;9.75;;;6.85;;
27889;SDS011;15238;49.082;9.102;2023-06-26T04:32:20;13.68;;;6.93;;
27889;SDS011;15238;49.082;9.102;2023-06-26T04:34:20;10.30;;;6.70;;
27889;SDS011;15238;49.082;9.102;2023-06-26T04:36:21;17.85;;;7.50;;
27889;SDS011;15238;49.082;9.102;2023-06-26T04:38:22;12.57;;;6.72;;
27889;SDS011;15238;49.082;9.102;2023-06-26T04:40:22;10.70;;;7.40;;
27889;SDS011;15238;49.082;9.102;2023-06-26T04:42:23;9.35;;;7.35;;
27889;SDS011;15238;49.082;9.102;2023-06-26T04:44:23;12.75;;;7.97;;
27889;SDS011;15238;49.082;9.102;2023-06-26T04:46:24;11.35;;;7.43;;
27889;SDS011;15238;49.082;9.102;2023-06-26T04:48:24;9.30;;;7.45;;
27889;SDS011;15238;49.082;9.102;2023-06-26T04:50:27;9.57;;;7.40;;
27889;SDS011;15238;49.082;9.102;2023-06-26T04:52:28;12.07;;;7.55;;
27889;SDS011;15238;49.082;9.102;2023-06-26T04:54:29;12.23;;;7.30;;
27889;SDS011;15238;49.082;9.102;2023-06-26T04:56:29;11.57;;;7.30;;
27889;SDS011;15238;49.082;9.102;2023-06-26T04:58:30;13.82;;;7.32;;
27889;SDS011;15238;49.082;9.102;2023-06-26T05:00:32;14.75;;;7.97;;
27889;SDS011;15238;49.082;9.102;2023-06-26T05:02:35;9.45;;;7.20;;
27889;SDS011;15238;49.082;9.102;2023-06-26T05:04:36;8.85;;;7.30;;
27889;SDS011;15238;49.082;9.102;2023-06-26T05:06:36;9.82;;;7.60;;
27889;SDS011;15238;49.082;9.102;2023-06-26T05:08:37;14.02;;;7.07;;
27889;SDS011;15238;49.082;9.102;2023-06-26T05:10:37;11.43;;;7.13;;
27889;SDS011;15238;49.082;9.102;2023-06-26T05:12:38;11.32;;;6.40;;
27889;SDS011;15238;49.082;9.102;2023-06-26T05:14:38;9.75;;;7.15;;
27889;SDS011;15238;49.082;9.102;2023-06-26T05:16:39;16.70;;;7.70;;
27889;SDS011;15238;49.082;9.102;2023-06-26T05:18:39;11.48;;;7.75;;
27889;SDS011;15238;49.082;9.102;2023-06-26T05:20:40;11.77;;;7.32;;
27889;SDS011;15238;49.082;9.102;2023-06-26T05:22:41;10.02;;;7.35;;
27889;SDS011;15238;49.082;9.102;2023-06-26T05:24:42;10.18;;;6.75;;
27889;SDS011;15238;49.082;9.102;2023-06-26T05:26:46;9.25;;;6.97;;
27889;SDS011;15238;49.082;9.102;2023-06-26T05:28:47;9.77;;;7.22;;
27889;SDS011;15238;49.082;9.102;2023-06-26T05:30:48;10.27;;;6.65;;
27889;SDS011;15238;49.082;9.102;2023-06-26T05:32:49;10.43;;;7.18;;
27889;SDS011;15238;49.082;9.102;2023-06-26T05:34:50;9.65;;;6.97;;
27889;SDS011;15238;49.082;9.102;2023-06-26T05:36:53;8.32;;;6.72;;
27889;SDS011;15238;49.082;9.102;2023-06-26T05:38:57;12.02;;;7.15;;
27889;SDS011;15238;49.082;9.102;2023-06-26T05:40:58;9.10;;;6.90;;
27889;SDS011;15238;49.082;9.102;2023-06-26T05:42:59;8.65;;;6.35;;
27889;SDS011;15238;49.082;9.102;2023-06-26T05:45:00;10.73;;;7.22;;
27889;SDS011;15238;49.082;9.102;2023-06-26T05:47:00;8.45;;;7.20;;
27889;SDS011;15238;49.082;9.102;2023-06-26T05:49:01;10.63;;;6.53;;
27889;SDS011;15238;49.082;9.102;2023-06-26T05:51:02;9.20;;;6.78;;
27889;SDS011;15238;49.082;9.102;2023-06-26T05:53:03;9.18;;;7.50;;
27889;SDS011;15238;49.082;9.102;2023-06-26T05:55:05;8.48;;;6.50;;
27889;SDS011;15238;49.082;9.102;2023-06-26T05:57:06;10.00;;;7.07;;
27889;SDS011;15238;49.082;9.102;2023-06-26T05:59:07;10.70;;;7.57;;
27889;SDS011;15238;49.082;9.102;2023-06-26T06:01:08;9.80;;;7.20;;
27889;SDS011;15238;49.082;9.102;2023-06-26T06:03:09;10.80;;;6.85;;
27889;SDS011;15238;49.082;9.102;2023-06-26T06:05:10;8.73;;;7.10;;
27889;SDS011;15238;49.082;9.102;2023-06-26T06:07:11;8.02;;;7.10;;
27889;SDS011;15238;49.082;9.102;2023-06-26T06:09:12;11.70;;;6.68;;
27889;SDS011;15238;49.082;9.102;2023-06-26T06:11:12;6.75;;;6.05;;
27889;SDS011;15238;49.082;9.102;2023-06-26T06:13:15;9.13;;;7.22;;
27889;SDS011;15238;49.082;9.102;2023-06-26T06:15:15;11.23;;;6.75;;
27889;SDS011;15238;49.082;9.102;2023-06-26T06:17:16;10.05;;;7.45;;
27889;SDS011;15238;49.082;9.102;2023-06-26T06:19:16;8.80;;;6.68;;
27889;SDS011;15238;49.082;9.102;2023-06-26T06:21:17;10.75;;;7.13;;
27889;SDS011;15238;49.082;9.102;2023-06-26T06:23:17;8.77;;;6.70;;
27889;SDS011;15238;49.082;9.102;2023-06-26T06:25:18;11.95;;;7.47;;
27889;SDS011;15238;49.082;9.102;2023-06-26T06:27:18;7.85;;;6.68;;
27889;SDS011;15238;49.082;9.102;2023-06-26T06:29:19;14.40;;;6.43;;
27889;SDS011;15238;49.082;9.102;2023-06-26T06:31:19;7.13;;;6.28;;
27889;SDS011;15238;49.082;9.102;2023-06-26T06:33:20;10.70;;;7.32;;
27889;SDS011;15238;49.082;9.102;2023-06-26T06:35:21;11.20;;;7.15;;
27889;SDS011;15238;49.082;9.102;2023-06-26T06:37:21;7.57;;;6.63;;
27889;SDS011;15238;49.082;9.102;2023-06-26T06:39:22;9.88;;;7.18;;
27889;SDS011;15238;49.082;9.102;2023-06-26T06:41:22;13.25;;;7.07;;
27889;SDS011;15238;49.082;9.102;2023-06-26T06:43:23;8.90;;;6.88;;
27889;SDS011;15238;49.082;9.102;2023-06-26T06:45:23;9.45;;;6.78;;
27889;SDS011;15238;49.082;9.102;2023-06-26T06:47:24;9.40;;;6.70;;
27889;SDS011;15238;49.082;9.102;2023-06-26T06:49:24;7.65;;;6.68;;
27889;SDS011;15238;49.082;9.102;2023-06-26T06:51:25;10.73;;;6.80;;
27889;SDS011;15238;49.082;9.102;2023-06-26T06:53:26;8.77;;;7.25;;
27889;SDS011;15238;49.082;9.102;2023-06-26T06:55:26;9.95;;;7.22;;
27889;SDS011;15238;49.082;9.102;2023-06-26T06:57:27;7.72;;;6.93;;
27889;SDS011;15238;49.082;9.102;2023-06-26T06:59:27;7.53;;;6.35;;
27889;SDS011;15238;49.082;9.102;2023-06-26T07:01:28;7.80;;;6.80;;
27889;SDS011;15238;49.082;9.102;2023-06-26T07:03:28;9.30;;;6.85;;
27889;SDS011;15238;49.082;9.102;2023-06-26T07:05:29;9.70;;;6.85;;
27889;SDS011;15238;49.082;9.102;2023-06-26T07:07:30;7.68;;;6.88;;
27889;SDS011;15238;49.082;9.102;2023-06-26T07:09:32;7.65;;;6.60;;
27889;SDS011;15238;49.082;9.102;2023-06-26T07:11:32;9.45;;;7.10;;
27889;SDS011;15238;49.082;9.102;2023-06-26T07:13:33;8.00;;;7.03;;
27889;SDS011;15238;49.082;9.102;2023-06-26T07:15:33;9.52;;;6.97;;
27889;SDS011;15238;49.082;9.102;2023-06-26T07:17:34;10.07;;;7.40;;
27889;SDS011;15238;49.082;9.102;2023-06-26T07:19:35;7.72;;;6.45;;
27889;SDS011;15238;49.082;9.102;2023-06-26T07:21:35;8.82;;;7.30;;
27889;SDS011;15238;49.082;9.102;2023-06-26T07:23:36;8.27;;;6.95;;
27889;SDS011;15238;49.082;9.102;2023-06-26T07:25:36;8.23;;;6.85;;
27889;SDS011;15238;49.082;9.102;2023-06-26T07:27:37;7.68;;;6.65;;
27889;SDS011;15238;49.082;9.102;2023-06-26T07:29:38;7.25;;;6.50;;
27889;SDS011;15238;49.082;9.102;2023-06-26T07:31:39;8.05;;;6.72;;
27889;SDS011;15238;49.082;9.102;2023-06-26T07:33:39;7.00;;;6.30;;
27889;SDS011;15238;49.082;9.102;2023-06-26T07:35:40;7.72;;;6.82;;
27889;SDS011;15238;49.082;9.102;2023-06-26T07:37:40;7.50;;;6.20;;
27889;SDS011;15238;49.082;9.102;2023-06-26T07:39:41;7.55;;;6.07;;
27889;SDS011;15238;49.082;9.102;2023-06-26T07:41:41;6.63;;;5.85;;
27889;SDS011;15238;49.082;9.102;2023-06-26T07:43:42;6.68;;;5.93;;
27889;SDS011;15238;49.082;9.102;2023-06-26T07:45:43;10.93;;;6.53;;
27889;SDS011;15238;49.082;9.102;2023-06-26T07:47:43;9.02;;;6.70;;
27889;SDS011;15238;49.082;9.102;2023-06-26T07:49:44;6.85;;;6.15;;
27889;SDS011;15238;49.082;9.102;2023-06-26T07:51:45;7.00;;;6.30;;
27889;SDS011;15238;49.082;9.102;2023-06-26T07:53:45;10.45;;;6.53;;
27889;SDS011;15238;49.082;9.102;2023-06-26T07:55:46;7.53;;;6.18;;
27889;SDS011;15238;49.082;9.102;2023-06-26T07:57:46;9.50;;;6.35;;
27889;SDS011;15238;49.082;9.102;2023-06-26T07:59:47;6.53;;;5.90;;
27889;SDS011;15238;49.082;9.102;2023-06-26T08:01:48;9.30;;;6.18;;
27889;SDS011;15238;49.082;9.102;2023-06-26T08:03:49;8.00;;;5.63;;
27889;SDS011;15238;49.082;9.102;2023-06-26T08:05:50;7.13;;;5.65;;
27889;SDS011;15238;49.082;9.102;2023-06-26T08:07:50;6.85;;;6.13;;
27889;SDS011;15238;49.082;9.102;2023-06-26T08:09:51;9.18;;;5.93;;
27889;SDS011;15238;49.082;9.102;2023-06-26T08:11:51;7.75;;;5.68;;
27889;SDS011;15238;49.082;9.102;2023-06-26T08:13:52;10.48;;;5.45;;
27889;SDS011;15238;49.082;9.102;2023-06-26T08:15:52;13.20;;;5.28;;
27889;SDS011;15238;49.082;9.102;2023-06-26T08:17:53;6.32;;;4.68;;
27889;SDS011;15238;49.082;9.102;2023-06-26T08:19:53;10.07;;;4.95;;
27889;SDS011;15238;49.082;9.102;2023-06-26T08:21:54;5.05;;;4.60;;
27889;SDS011;15238;49.082;9.102;2023-06-26T08:23:54;7.43;;;5.05;;
27889;SDS011;15238;49.082;9.102;2023-06-26T08:25:55;7.65;;;4.97;;
27889;SDS011;15238;49.082;9.102;2023-06-26T08:27:58;6.10;;;5.20;;
27889;SDS011;15238;49.082;9.102;2023-06-26T08:29:59;6.90;;;4.68;;
27889;SDS011;15238;49.082;9.102;2023-06-26T08:31:59;6.18;;;5.03;;
27889;SDS011;15238;49.082;9.102;2023-06-26T08:34:02;5.55;;;4.60;;
27889;SDS011;15238;49.082;9.102;2023-06-26T08:36:03;6.10;;;4.72;;
27889;SDS011;15238;49.082;9.102;2023-06-26T08:38:04;6.90;;;4.80;;
27889;SDS011;15238;49.082;9.102;2023-06-26T08:40:04;4.95;;;4.53;;
27889;SDS011;15238;49.082;9.102;2023-06-26T08:42:06;6.40;;;4.03;;
27889;SDS011;15238;49.082;9.102;2023-06-26T08:44:06;6.72;;;4.63;;
27889;SDS011;15238;49.082;9.102;2023-06-26T08:46:07;4.78;;;4.38;;
27889;SDS011;15238;49.082;9.102;2023-06-26T08:48:08;5.15;;;4.30;;
27889;SDS011;15238;49.082;9.102;2023-06-26T08:50:13;5.50;;;4.63;;
27889;SDS011;15238;49.082;9.102;2023-06-26T08:52:17;5.45;;;4.50;;
27889;SDS011;15238;49.082;9.102;2023-06-26T08:54:36;8.15;;;4.50;;
27889;SDS011;15238;49.082;9.102;2023-06-26T08:56:45;6.32;;;4.25;;
27889;SDS011;15238;49.082;9.102;2023-06-26T08:58:49;7.85;;;4.53;;
27889;SDS011;15238;49.082;9.102;2023-06-26T09:00:49;6.20;;;4.82;;
27889;SDS011;15238;49.082;9.102;2023-06-26T09:02:50;7.68;;;4.72;;
27889;SDS011;15238;49.082;9.102;2023-06-26T09:04:51;6.38;;;4.40;;
27889;SDS011;15238;49.082;9.102;2023-06-26T09:06:51;6.35;;;5.15;;
27889;SDS011;15238;49.082;9.102;2023-06-26T09:08:52;7.05;;;4.65;;
27889;SDS011;15238;49.082;9.102;2023-06-26T09:10:52;9.70;;;4.22;;
27889;SDS011;15238;49.082;9.102;2023-06-26T09:12:56;6.07;;;4.55;;
27889;SDS011;15238;49.082;9.102;2023-06-26T09:15:01;5.10;;;4.30;;
27889;SDS011;15238;49.082;9.102;2023-06-26T09:17:03;5.68;;;4.30;;
27889;SDS011;15238;49.082;9.102;2023-06-26T09:19:03;5.72;;;4.60;;
27889;SDS011;15238;49.082;9.102;2023-06-26T09:21:08;4.90;;;4.28;;
27889;SDS011;15238;49.082;9.102;2023-06-26T09:23:09;6.07;;;4.70;;
27889;SDS011;15238;49.082;9.102;2023-06-26T09:25:10;6.88;;;4.57;;
27889;SDS011;15238;49.082;9.102;2023-06-26T09:27:11;8.63;;;5.05;;
27889;SDS011;15238;49.082;9.102;2023-06-26T09:29:13;9.15;;;4.95;;
27889;SDS011;15238;49.082;9.102;2023-06-26T09:31:13;8.27;;;5.43;;
27889;SDS011;15238;49.082;9.102;2023-06-26T09:33:15;5.97;;;5.28;;
27889;SDS011;15238;49.082;9.102;2023-06-26T09:35:17;7.53;;;5.22;;
27889;SDS011;15238;49.082;9.102;2023-06-26T09:37:18;5.60;;;4.97;;
27889;SDS011;15238;49.082;9.102;2023-06-26T09:39:18;7.35;;;4.40;;
27889;SDS011;15238;49.082;9.102;2023-06-26T09:41:20;6.32;;;4.95;;
27889;SDS011;15238;49.082;9.102;2023-06-26T09:43:21;7.60;;;5.47;;
27889;SDS011;15238;49.082;9.102;2023-06-26T09:45:21;7.63;;;5.60;;
27889;SDS011;15238;49.082;9.102;2023-06-26T09:47:23;6.25;;;5.35;;
27889;SDS011;15238;49.082;9.102;2023-06-26T09:49:23;13.82;;;5.50;;
27889;SDS011;15238;49.082;9.102;2023-06-26T09:51:24;7.13;;;5.28;;
27889;SDS011;15238;49.082;9.102;2023-06-26T09:53:25;10.38;;;5.30;;
27889;SDS011;15238;49.082;9.102;2023-06-26T09:55:26;8.45;;;5.28;;
27889;SDS011;15238;49.082;9.102;2023-06-26T09:57:27;6.60;;;5.45;;
27889;SDS011;15238;49.082;9.102;2023-06-26T09:59:27;11.48;;;5.50;;
27889;SDS011;15238;49.082;9.102;2023-06-26T10:01:28;7.82;;;5.40;;
27889;SDS011;15238;49.082;9.102;2023-06-26T10:03:30;6.00;;;5.40;;
27889;SDS011;15238;49.082;9.102;2023-06-26T10:05:31;6.25;;;5.50;;
27889;SDS011;15238;49.082;9.102;2023-06-26T10:07:31;12.55;;;5.43;;
27889;SDS011;15238;49.082;9.102;2023-06-26T10:09:33;11.05;;;5.93;;
27889;SDS011;15238;49.082;9.102;2023-06-26T10:11:47;8.00;;;5.25;;
27889;SDS011;15238;49.082;9.102;2023-06-26T10:13:56;8.63;;;6.13;;
27889;SDS011;15238;49.082;9.102;2023-06-26T10:15:59;9.77;;;5.68;;
27889;SDS011;15238;49.082;9.102;2023-06-26T10:18:00;7.95;;;5.60;;
27889;SDS011;15238;49.082;9.102;2023-06-26T10:20:02;11.63;;;5.88;;
27889;SDS011;15238;49.082;9.102;2023-06-26T10:22:03;7.78;;;6.20;;
27889;SDS011;15238;49.082;9.102;2023-06-26T10:24:05;10.93;;;6.03;;
27889;SDS011;15238;49.082;9.102;2023-06-26T10:26:06;6.82;;;5.57;;
27889;SDS011;15238;49.082;9.102;2023-06-26T10:28:09;9.23;;;5.53;;
27889;SDS011;15238;49.082;9.102;2023-06-26T10:30:13;7.90;;;5.75;;
27889;SDS011;15238;49.082;9.102;2023-06-26T10:32:17;8.50;;;5.82;;
27889;SDS011;15238;49.082;9.102;2023-06-26T10:34:20;6.40;;;5.32;;
27889;SDS011;15238;49.082;9.102;2023-06-26T10:36:27;9.15;;;5.40;;
27889;SDS011;15238;49.082;9.102;2023-06-26T10:38:48;7.27;;;5.47;;
27889;SDS011;15238;49.082;9.102;2023-06-26T10:40:50;6.22;;;5.47;;
27889;SDS011;15238;49.082;9.102;2023-06-26T10:42:51;9.90;;;5.70;;
27889;SDS011;15238;49.082;9.102;2023-06-26T10:45:16;7.70;;;5.75;;
27889;SDS011;15238;49.082;9.102;2023-06-26T10:47:31;7.38;;;5.68;;
27889;SDS011;15238;49.082;9.102;2023-06-26T10:49:34;10.45;;;5.57;;
27889;SDS011;15238;49.082;9.102;2023-06-26T10:51:36;6.90;;;5.53;;
27889;SDS011;15238;49.082;9.102;2023-06-26T10:53:36;8.25;;;5.47;;
27889;SDS011;15238;49.082;9.102;2023-06-26T10:55:37;5.53;;;5.00;;
27889;SDS011;15238;49.082;9.102;2023-06-26T10:57:44;6.18;;;5.57;;
27889;SDS011;15238;49.082;9.102;2023-06-26T10:59:46;12.35;;;5.47;;
27889;SDS011;15238;49.082;9.102;2023-06-26T11:01:53;6.78;;;5.22;;
27889;SDS011;15238;49.082;9.102;2023-06-26T11:06:12;9.32;;;5.45;;
27889;SDS011;15238;49.082;9.102;2023-06-26T11:08:17;8.80;;;5.80;;
27889;SDS011;15238;49.082;9.102;2023-06-26T11:10:20;7.32;;;5.25;;
27889;SDS011;15238;49.082;9.102;2023-06-26T11:14:44;6.65;;;5.55;;
27889;SDS011;15238;49.082;9.102;2023-06-26T11:16:45;6.25;;;5.38;;
27889;SDS011;15238;49.082;9.102;2023-06-26T11:18:46;6.53;;;5.38;;
27889;SDS011;15238;49.082;9.102;2023-06-26T11:20:47;7.28;;;5.20;;
27889;SDS011;15238;49.082;9.102;2023-06-26T11:22:48;10.07;;;6.80;;
27889;SDS011;15238;49.082;9.102;2023-06-26T11:24:53;6.43;;;5.32;;
27889;SDS011;15238;49.082;9.102;2023-06-26T11:26:54;6.85;;;5.20;;
27889;SDS011;15238;49.082;9.102;2023-06-26T11:28:59;10.65;;;5.70;;
27889;SDS011;15238;49.082;9.102;2023-06-26T11:30:59;7.35;;;5.85;;
27889;SDS011;15238;49.082;9.102;2023-06-26T11:33:04;6.07;;;5.15;;
27889;SDS011;15238;49.082;9.102;2023-06-26T11:37:10;6.90;;;5.63;;
27889;SDS011;15238;49.082;9.102;2023-06-26T11:39:11;8.40;;;4.97;;
27889;SDS011;15238;49.082;9.102;2023-06-26T11:41:16;10.70;;;4.78;;
27889;SDS011;15238;49.082;9.102;2023-06-26T11:43:17;14.60;;;5.80;;
27889;SDS011;15238;49.082;9.102;2023-06-26T11:45:20;6.07;;;4.75;;
27889;SDS011;15238;49.082;9.102;2023-06-26T11:47:20;7.65;;;5.45;;
27889;SDS011;15238;49.082;9.102;2023-06-26T11:49:22;7.28;;;5.90;;
27889;SDS011;15238;49.082;9.102;2023-06-26T11:51:28;7.65;;;5.85;;
27889;SDS011;15238;49.082;9.102;2023-06-26T11:53:28;7.55;;;5.75;;
27889;SDS011;15238;49.082;9.102;2023-06-26T11:55:39;10.50;;;5.50;;
27889;SDS011;15238;49.082;9.102;2023-06-26T11:57:41;9.10;;;5.90;;
27889;SDS011;15238;49.082;9.102;2023-06-26T11:59:42;7.82;;;5.95;;
27889;SDS011;15238;49.082;9.102;2023-06-26T12:01:42;6.68;;;5.97;;
27889;SDS011;15238;49.082;9.102;2023-06-26T12:03:47;8.00;;;6.03;;
27889;SDS011;15238;49.082;9.102;2023-06-26T12:05:47;12.07;;;6.13;;
27889;SDS011;15238;49.082;9.102;2023-06-26T12:07:49;10.35;;;5.75;;
27889;SDS011;15238;49.082;9.102;2023-06-26T12:09:51;7.72;;;6.25;;
27889;SDS011;15238;49.082;9.102;2023-06-26T12:11:53;15.32;;;5.55;;
27889;SDS011;15238;49.082;9.102;2023-06-26T12:13:54;9.85;;;5.97;;
27889;SDS011;15238;49.082;9.102;2023-06-26T12:15:57;6.43;;;5.32;;
27889;SDS011;15238;49.082;9.102;2023-06-26T12:17:57;6.22;;;5.50;;